Weather observations for the past three days for
N. Kingston / Quonset
Imperial (Metric)
Date Time (edt) Wind (mph) Vis. (mi.) Weather Sky Cond. Temperature (ºF) Relative Humidity Wind Chill (°F) Heat Index (°F) Pressure Precipitation (in)
Air Dwpt 6 hour altimeter (in) sea level (mb) 1 hr 3 hr 6 hr
Max. Min.
07 02:55 S 9 6.00 Fog/Mist SCT013 OVC028 55.4 53.6 94% 29.7 0.0
07 02:35 SW 3 7.00 Fog/Mist SCT002 BKN028 OVC033 55.4 53.6 94% 29.7 0.0
07 02:15 S 6 7.00 Fog/Mist SCT002 BKN019 OVC100 55.4 53.6 94% 29.71 0.0
07 01:55 S 7 5.00 Light Drizzle Fog/Mist SCT007 BKN017 OVC065 53.6 53.6 56.1 54 100% 29.71 0.0
07 01:35 S 8 7.00 Overcast OVC007 55.4 53.6 94% 29.72 0.0
07 01:15 S 6 7.00 Fog/Mist OVC007 53.6 53.6 100% 29.73 0.0
07 00:55 S 6 9.00 Overcast OVC004 55.4 55.4 100% 29.74 0.0
07 00:35 S 6 7.00 Light Rain OVC006 55.4 53.6 94% 29.74 0.0
07 00:15 S 7 8.00 Light Rain OVC006 55.4 55.4 100% 29.73 0.0
06 23:56 S 6 9.00 Overcast OVC006 55.4 53.6 94% 29.74 0.0
06 23:36 S 6 10.00 Overcast OVC006 55.4 55.4 100% 29.74 0.0
06 23:15 SW 8 9.00 Overcast OVC006 55.4 53.6 94% 29.74 0.0
06 22:55 SW 10 9.00 Overcast OVC006 55.4 53.6 94% 29.74 0.0
06 22:44 SW 13 9.00 Overcast OVC006 55.4 55.4 100% 29.74 0.0
06 21:50 SW 10 5.00 Fog/Mist OVC006 55.4 53.6 94% 29.75 0.0
06 20:50 SW 20 4.00 Fog/Mist OVC006 55.4 53.6 94% 29.75 0.0
06 19:50 SW 20 G 29 3.00 Fog/Mist OVC008 55.4 55.4 100% 29.76 0.0
06 18:50 SW 18 G 28 2.00 Light Drizzle Fog/Mist OVC008 57.2 55.4 94% 29.75 0.0
06 17:50 SW 14 G 31 2.50 Light Rain Fog/Mist BKN012 BKN036 57.2 53.6 88% 29.76 0.0
06 16:50 SW 14 G 31 3.00 Light Rain Fog/Mist BKN010 OVC070 57.2 53.6 88% 29.76 0.0
06 15:50 SW 17 G 31 4.00 Light Rain Fog/Mist FEW025 BKN070 57.2 55.4 94% 29.77 0.0
06 14:50 SW 29 G 37 8.00 Partly Cloudy and Windy SCT022 SCT075 60.8 51.8 72% 29.8 0.0
06 13:50 SW 25 G 39 8.00 Partly Cloudy and Breezy SCT022 SCT080 62.6 53.6 73% 29.81 0.0
06 12:50 SW 24 G 40 7.00 A Few Clouds and Breezy FEW024 64.4 53.6 68% 29.82 0.0
06 10:50 SW 32 G 38 7.00 A Few Clouds and Windy FEW015 64.4 53.6 68% 29.86 0.0
06 08:50 SW 26 G 32 7.00 Partly Cloudy and Windy SCT015 60.8 53.6 77% 29.86 0.0
06 07:50 SW 17 G 30 7.00 Partly Cloudy SCT015 57.2 53.6 88% 29.87 0.0
06 06:50 SW 17 G 26 7.00 Mostly Cloudy BKN015 57.2 53.6 88% 29.88 0.0
06 06:47 S 17 G 25 10.00 NULL NULL 57.2 53.6 88% 29.88 0.0
06 06:35 S 17 G 24 10.00 NULL NULL 57.2 53.6 88% 29.88 0.0
06 06:15 S 20 G 24 10.00 NULL NULL 57.2 53.6 88% 29.87 0.0
06 05:55 SW 17 G 22 10.00 NULL NULL 57.2 53.6 88% 29.87 0.0
06 05:35 SW 22 G 28 10.00 Breezy NULL 57.2 53.6 88% 29.87 0.0
06 05:15 SW 20 G 28 10.00 NULL NULL 57.2 53.6 88% 29.87 0.0
06 04:55 SW 18 G 26 10.00 NULL NULL 57.2 53.6 88% 29.88 0.0
06 04:35 SW 20 G 28 10.00 NULL NULL 59 53.6 82% 29.88 0.0
06 04:15 SW 21 G 28 10.00 Breezy NULL 59 53.6 82% 29.89 0.0
06 03:55 SW 22 G 30 10.00 Breezy NULL 59 53.6 82% 29.88 0.0
06 03:35 SW 22 G 37 10.00 Breezy NULL 59 53.6 82% 29.88 0.0
06 03:15 SW 23 G 32 10.00 Breezy NULL 59 53.6 82% 29.87 0.0
06 02:55 SW 22 G 33 10.00 Breezy NULL 59 53.6 82% 29.87 0.0
06 02:35 SW 22 G 30 10.00 Breezy NULL 59 53.6 82% 29.88 0.0
06 02:15 SW 22 G 31 10.00 Breezy NULL 59 53.6 82% 29.88 0.0
06 02:00 SW 21 G 35 10.00 Breezy NULL 59 53.6 82% 29.88 0.0
06 01:15 SW 21 G 30 10.00 Breezy NULL 59 51.8 77% 29.88 0.0
06 00:55 SW 26 G 37 10.00 Windy NULL 59 53.6 82% 29.89 0.0
06 00:35 SW 25 G 33 10.00 Breezy NULL 59 53.6 82% 29.88 0.0
06 00:15 SW 24 G 35 10.00 Breezy NULL 59 51.8 77% 29.88 0.0
05 23:55 SW 23 G 31 10.00 Breezy NULL 59 51.8 77% 29.89 0.0
05 23:35 SW 23 G 33 10.00 Breezy NULL 59 51.8 77% 29.88 0.0
05 23:15 SW 22 G 26 10.00 Breezy NULL 59 51.8 77% 29.88 0.0
05 22:55 SW 16 G 29 10.00 NULL NULL 59 50 72% 29.88 0.0
05 22:50 SW 18 G 24 10.00 A Few Clouds FEW060 59 50 72% 29.87 0.0
05 21:50 SW 28 G 35 10.00 A Few Clouds and Windy FEW060 59 50 72% 29.86 0.0
05 20:50 SW 28 G 35 10.00 A Few Clouds and Windy FEW060 60.8 50 68% 29.84 0.0
05 19:50 SW 14 G 35 6.00 A Few Clouds with Haze FEW060 59 50 72% 29.79 0.0
05 18:50 SW 20 G 26 6.00 Fair with Haze CLR 64.4 50 60% 29.82 0.0
05 17:50 SW 18 G 29 7.00 Fair CLR 62.6 50 64% 29.82 0.0
05 16:50 S 23 7.00 Fair and Breezy CLR 59 50 72% 29.81 0.0
05 13:50 S 23 7.00 Fair and Breezy CLR 60.8 50 68% 29.83 0.0
05 12:50 S 18 G 24 8.00 Fair CLR 68 50 53% 29.83 0.0
05 11:50 S 18 8.00 A Few Clouds FEW085 60.8 50 68% 29.85 0.0
05 10:50 S 22 8.00 A Few Clouds and Breezy FEW085 59 50 72% 29.84 0.0
05 09:50 S 16 8.00 Fair CLR 59 50 72% 29.85 0.0
05 08:50 SW 10 G 20 7.00 Fair CLR 60.8 50 68% 29.86 0.0
05 07:51 S 9 10.00 Fair CLR 57.2 50 77% 29.87 0.0
05 07:50 SW 10 10.00 Fair CLR 57.2 50 77% 29.86 0.0
05 07:35 S 12 10.00 Fair CLR 55.4 50 82% 29.87 0.0
05 07:15 S 12 10.00 Fair CLR 55.4 50 82% 29.86 0.0
05 06:55 S 10 10.00 Fair CLR 53.6 48.2 82% 29.86 0.0
05 06:35 S 13 10.00 A Few Clouds FEW090 53.6 48.2 82% 29.86 0.0
05 06:15 S 14 10.00 A Few Clouds FEW090 51.8 48.2 88% 29.86 0.0
05 05:55 S 10 10.00 Fair CLR 51.8 48.2 88% 29.85 0.0
05 05:35 S 9 10.00 A Few Clouds FEW095 51.8 48.2 88% 29.85 0.0
05 05:15 S 9 10.00 A Few Clouds FEW095 53.6 48.2 82% 29.86 0.0
05 04:55 S 9 10.00 A Few Clouds FEW090 51.8 48.2 88% 29.86 0.0
05 04:35 S 10 10.00 Partly Cloudy SCT090 51.8 48.2 88% 29.86 0.0
05 04:15 S 8 10.00 Fair CLR 51.8 48.2 88% 29.86 0.0
05 03:55 S 9 10.00 Fair CLR 51.8 48.2 88% 29.87 0.0
05 03:35 SE 10 10.00 Fair CLR 51.8 48.2 88% 29.86 0.0
05 03:15 S 7 10.00 Fair CLR 51.8 48.2 88% 29.87 0.0
05 02:55 SW 7 10.00 Fair CLR 51.8 48.2 88% 29.86 0.0
05 02:35 SW 7 10.00 Fair CLR 51.8 48.2 88% 29.87 0.0
05 02:15 SW 10 10.00 A Few Clouds FEW003 51.8 48.2 88% 29.87 0.0
05 01:55 SW 14 10.00 A Few Clouds FEW002 51.8 48.2 56.5 51.6 88% 29.87 0.0
05 01:35 SW 14 10.00 Fair CLR 51.8 48.2 88% 29.87 0.0
05 01:15 SW 12 10.00 Fair CLR 51.8 48.2 88% 29.87 0.0
05 00:55 SW 13 10.00 Fair CLR 51.8 48.2 88% 29.88 0.0
05 00:35 SW 15 10.00 Fair CLR 51.8 48.2 88% 29.88 0.0
05 00:15 SW 13 10.00 Fair CLR 51.8 48.2 88% 29.88 0.0
04 23:55 SW 13 10.00 Fair CLR 53.6 46.4 77% 29.88 0.0
04 23:35 SW 13 10.00 Fair CLR 53.6 46.4 77% 29.88 0.0
04 23:15 SW 14 G 17 10.00 Fair CLR 53.6 46.4 77% 29.88 0.0
04 22:55 SW 12 10.00 Fair CLR 53.6 46.4 77% 29.88 0.0
04 22:35 SW 14 10.00 Fair CLR 53.6 46.4 77% 29.88 0.0
04 22:16 SW 12 G 20 10.00 Fair CLR 53.6 46.4 77% 29.89 0.0
04 21:55 SW 13 10.00 Fair CLR 53.6 46.4 77% 29.89 0.0
04 21:35 SW 10 10.00 Fair CLR 53.6 46.4 77% 29.88 0.0
04 21:15 SW 13 G 21 10.00 Fair CLR 53.6 46.4 77% 29.87 0.0
04 20:55 SW 14 10.00 Fair CLR 53.6 46.4 77% 29.86 0.0
04 20:35 SW 18 G 31 10.00 Fair CLR 55.4 46.4 72% 29.85 0.0
04 20:15 SW 20 G 25 10.00 Fair CLR 55.4 46.4 72% 29.84 0.0
04 19:55 SW 17 G 23 10.00 Fair CLR 55.4 44.6 68 56.5 67% 29.83 0.0
04 19:35 SW 17 G 23 10.00 Fair CLR 57.2 44.6 63% 29.83 0.0
04 19:15 SW 17 G 28 10.00 Fair CLR 59 44.6 59% 29.82 0.0
04 18:55 SW 15 G 24 10.00 Fair CLR 59 42.8 55% 29.82 0.0
04 18:35 SW 20 G 29 10.00 Fair CLR 59 42.8 55% 29.81 0.0
04 18:15 SW 15 G 33 10.00 Fair CLR 62.6 41 45% 29.82 0.0
04 17:55 SW 22 G 37 10.00 Fair and Breezy CLR 62.6 39.2 42% 29.81 0.0
04 17:35 SW 25 G 33 10.00 Fair and Breezy CLR 62.6 39.2 42% 29.81 0.0
04 17:15 SW 22 G 35 10.00 Fair and Breezy CLR 64.4 41 43% 29.81 0.0
04 16:55 SW 22 G 28 10.00 Fair and Breezy CLR 64.4 41 43% 29.8 0.0
04 16:35 S 18 G 25 10.00 Fair CLR 64.4 41 43% 29.8 0.0
04 16:15 SW 20 G 29 10.00 Fair CLR 64.4 41 43% 29.8 0.0
04 15:55 SW 23 G 33 10.00 Fair and Breezy CLR 66.2 39.2 37% 29.8 0.0
04 15:35 SW 22 G 30 10.00 Fair and Breezy CLR 64.4 39.2 40% 29.8 0.0
04 15:15 SW 23 G 33 10.00 Fair and Breezy CLR 66.2 39.2 37% 29.8 0.0
04 14:55 SW 23 G 38 10.00 Fair and Breezy CLR 66.2 37.4 35% 29.8 0.0
04 14:35 SW 29 G 37 10.00 Fair and Windy CLR 66.2 35.6 32% 29.81 0.0
04 14:15 SW 28 G 35 10.00 Fair and Windy CLR 68 37.4 33% 29.81 0.0
04 13:55 SW 31 G 40 10.00 Fair and Windy CLR 66.2 37.4 68.2 52.9 35% 29.81 0.0
04 13:35 SW 22 G 30 10.00 Fair and Breezy CLR 68 35.6 30% 29.82 0.0
04 13:15 SW 31 G 38 10.00 Fair and Windy CLR 66.2 32 28% 29.81 0.0
04 12:55 SW 24 G 45 10.00 Fair and Breezy CLR 68 32 26% 29.82 0.0
04 12:36 SW 23 G 30 10.00 Fair and Breezy CLR 66.2 33.8 30% 29.83 0.0
04 12:15 SW 25 G 38 10.00 Fair and Breezy CLR 66.2 32 28% 29.83 0.0
04 11:55 SW 23 G 36 10.00 Fair and Breezy CLR 66.2 32 28% 29.84 0.0
04 11:50 SW 28 G 36 10.00 Fair and Windy CLR 66.2 32 28% 29.83 0.0
04 09:50 SW 18 10.00 Fair CLR 62.6 35.6 37% 29.86 0.0
04 08:50 W 16 10.00 A Few Clouds FEW090 59 33.8 39% 29.88 0.0
04 07:51 SW 20 G 23 10.00 Fair CLR 53.6 33.8 47% 29.89 0.0
04 07:50 W 20 10.00 Fair CLR 53.6 33.8 47% 29.88 0.0
04 07:35 SW 16 10.00 Fair CLR 51.8 35.6 54% 29.89 0.0
04 07:15 SW 13 10.00 Fair CLR 50 35.6 58% 46 29.89 0.0
04 06:55 SW 14 10.00 Fair CLR 50 35.6 58% 45 29.89 0.0
04 06:35 SW 14 10.00 Fair CLR 48.2 37.4 66% 43 29.88 0.0
04 06:15 SW 12 10.00 Fair CLR 48.2 37.4 66% 44 29.89 0.0
04 05:55 SW 12 10.00 Fair CLR 46.4 35.6 66% 42 29.88 0.0
04 05:15 SW 14 10.00 Partly Cloudy FEW070 SCT095 46.4 33.8 62% 41 29.87 0.0
04 04:55 SW 12 10.00 Overcast SCT080 OVC095 46.4 35.6 66% 42 29.87 0.0
04 04:36 SW 10 10.00 Overcast OVC080 46.4 35.6 66% 42 29.87 0.0
04 04:15 SW 9 10.00 Overcast OVC080 46.4 35.6 66% 42 29.87 0.0
04 03:55 SW 9 10.00 Overcast OVC080 46.4 35.6 66% 42 29.87 0.0
04 03:35 SW 12 10.00 Overcast OVC080 46.4 33.8 62% 42 29.87 0.0
04 03:15 SW 12 10.00 Overcast OVC080 46.4 35.6 66% 42 29.87 0.0
Date Time (edt) Wind (mph) Vis. (mi.) Weather Sky Cond. Air Dwpt Max. Min. Relative Humidity Wind Chill (°F) Heat Index (°F) altimeter (in) sea level (mb) 1 hr 3 hr 6 hr
6 hour
Temperature (ºF) Pressure Precipitation (in)